Time;durP1;ratioP1;P1;durP2;ratioP2;P2;SDS_P1;SDS_P2;PMS_P1;PMS_P2;Temp;Humidity;BMP_temperature;BMP_pressure;BME280_temperature;BME280_humidity;BME280_pressure;Samples;Min_cycle;Max_cycle;Signal;HPM_P1;HPM_P2
2024/01/29 00:00:08;;;;;;;2.70;1.05;;;;;;;3.47;77.79;101173.38;5066206;28;20017;-65
2024/01/29 00:02:34;;;;;;;42.72;2.70;;;;;;;3.32;78.87;101189.13;5085011;22;20045;-65
2024/01/29 00:04:59;;;;;;;0.55;0.55;;;;;;;3.31;79.14;101158.28;5032825;23;20144;-66
2024/01/29 00:07:25;;;;;;;20.58;1.60;;;;;;;3.35;78.41;101155.88;5025785;28;20025;-66
2024/01/29 00:09:50;;;;;;;3.60;3.15;;;;;;;3.32;78.92;101139.50;5025083;28;20032;-66
2024/01/29 00:12:15;;;;;;;0.80;0.80;;;;;;;3.31;78.81;101158.28;5026184;28;20092;-62
2024/01/29 00:14:40;;;;;;;0.60;0.60;;;;;;;3.52;77.54;101147.88;5026094;28;20479;-66
2024/01/29 00:17:07;;;;;;;0.70;0.70;;;;;;;3.37;78.35;101147.38;5025900;28;20086;-64
2024/01/29 00:19:32;;;;;;;1.15;0.95;;;;;;;3.34;78.53;101136.16;5024767;28;20129;-65
2024/01/29 00:21:58;;;;;;;1.30;0.98;;;;;;;3.25;78.90;101145.25;5025899;28;20080;-65
2024/01/29 00:24:24;;;;;;;1.55;1.42;;;;;;;3.26;78.99;101140.16;5025659;28;20113;-65
2024/01/29 00:26:50;;;;;;;1.40;1.30;;;;;;;3.30;78.85;101130.88;5025840;28;20080;-66
2024/01/29 00:29:15;;;;;;;0.60;0.60;;;;;;;3.22;79.17;101128.06;5046312;23;20118;-65
2024/01/29 00:31:40;;;;;;;1.20;0.75;;;;;;;3.20;79.65;101151.09;5047826;28;20390;-67
2024/01/29 00:34:07;;;;;;;1.02;0.93;;;;;;;3.20;79.88;101152.78;5053582;23;20054;-65
2024/01/29 00:36:32;;;;;;;0.60;0.60;;;;;;;3.15;80.39;101156.88;5045249;28;20021;-64
2024/01/29 00:38:57;;;;;;;1.40;1.30;;;;;;;3.26;79.99;101147.00;5027494;28;20044;-65
2024/01/29 00:41:23;;;;;;;6.13;1.95;;;;;;;3.24;80.35;101148.66;5027312;28;20021;-65
2024/01/29 00:43:49;;;;;;;2.15;1.98;;;;;;;3.32;79.46;101144.66;5027440;28;20032;-64
2024/01/29 00:46:15;;;;;;;0.90;0.82;;;;;;;3.20;80.41;101155.34;5045286;28;20033;-64
2024/01/29 00:48:41;;;;;;;3.22;1.70;;;;;;;3.26;80.04;101144.44;5027447;28;20021;-66
2024/01/29 00:51:07;;;;;;;1.05;1.02;;;;;;;3.19;80.56;101126.28;5044975;28;20520;-64
2024/01/29 00:53:32;;;;;;;0.95;0.82;;;;;;;3.17;80.52;101104.81;5026720;28;20021;-64
2024/01/29 00:55:57;;;;;;;0.60;0.60;;;;;;;3.31;80.33;101117.22;5045018;28;20031;-66
2024/01/29 00:58:23;;;;;;;0.60;0.60;;;;;;;3.20;80.39;101122.00;5045010;28;20052;-65
2024/01/29 01:00:49;;;;;;;3.22;1.88;;;;;;;3.21;80.27;101118.63;5045310;28;20036;-65
2024/01/29 01:03:14;;;;;;;3.15;0.98;;;;;;;3.20;80.07;101119.44;5044727;28;20386;-64
2024/01/29 01:05:40;;;;;;;1.42;1.33;;;;;;;3.26;80.25;101123.91;5045142;28;20489;-65
2024/01/29 01:08:05;;;;;;;0.93;0.93;;;;;;;3.28;80.21;101123.13;5045044;28;20021;-65
2024/01/29 01:10:31;;;;;;;1.77;1.67;;;;;;;3.21;80.93;101116.91;5044898;28;20026;-66
2024/01/29 01:12:57;;;;;;;0.85;0.85;;;;;;;3.24;80.63;101125.53;5026887;28;20041;-65
2024/01/29 01:15:22;;;;;;;0.70;0.70;;;;;;;3.20;81.15;101115.19;5044845;28;20021;-67
2024/01/29 01:17:48;;;;;;;1.02;0.98;;;;;;;3.21;81.20;101123.75;5049919;23;20056;-64
2024/01/29 01:20:14;;;;;;;0.57;0.57;;;;;;;3.32;80.13;101119.84;5049035;23;20128;-64
2024/01/29 01:22:39;;;;;;;20.35;1.80;;;;;;;3.21;81.03;101116.91;5043423;28;20053;-66
2024/01/29 01:25:06;;;;;;;0.82;0.82;;;;;;;3.22;81.11;101102.41;5044822;28;20095;-65
2024/01/29 01:27:31;;;;;;;1.15;1.05;;;;;;;3.31;79.99;101101.81;5044863;28;20060;-66
2024/01/29 01:29:57;;;;;;;1.70;1.13;;;;;;;3.27;80.09;101094.84;5044598;28;20017;-66
2024/01/29 01:32:22;;;;;;;1.85;1.63;;;;;;;3.28;80.00;101089.78;5043838;28;20048;-65
2024/01/29 01:34:47;;;;;;;1.05;0.95;;;;;;;3.22;80.85;101087.88;5041704;28;20077;-64
2024/01/29 01:37:13;;;;;;;1.40;1.13;;;;;;;3.16;81.25;101097.94;5048781;23;20045;-66
2024/01/29 01:39:38;;;;;;;1.13;0.77;;;;;;;3.14;81.10;101093.56;5056037;23;20055;-65
2024/01/29 01:42:07;;;;;;;1.55;1.45;;;;;;;3.12;81.47;101102.91;5043233;28;20536;-65
2024/01/29 01:44:32;;;;;;;1.73;1.63;;;;;;;3.24;80.78;101089.63;5044005;28;20021;-65
2024/01/29 01:46:59;;;;;;;2.58;0.90;;;;;;;3.19;80.62;101092.91;5044438;28;20095;-66
2024/01/29 01:51:53;;;;;;;1.35;1.25;;;;;;;3.35;79.81;101076.28;5041261;28;20042;-65
2024/01/29 01:54:20;;;;;;;2.80;0.77;;;;;;;3.14;80.76;101073.94;5049492;23;20072;-65
2024/01/29 01:59:11;;;;;;;40.47;1.63;;;;;;;3.15;81.87;101095.31;5048302;23;20128;-64
2024/01/29 02:01:40;;;;;;;0.90;0.90;;;;;;;3.19;81.57;101100.63;5047227;23;20074;-66
2024/01/29 02:04:07;;;;;;;3.08;1.70;;;;;;;3.17;81.43;101089.41;5060322;23;20082;-65
2024/01/29 02:06:32;;;;;;;1.38;1.30;;;;;;;2.99;81.65;101075.97;5027690;28;20033;-64
2024/01/29 02:08:59;;;;;;;1.23;0.85;;;;;;;3.10;81.92;101095.16;5051819;23;20061;-64
2024/01/29 02:11:25;;;;;;;9.50;2.85;;;;;;;3.14;82.31;101093.56;5047233;28;20104;-63
2024/01/29 02:13:50;;;;;;;1.13;1.05;;;;;;;3.11;82.68;101114.88;5047507;28;20024;-65
2024/01/29 02:16:16;;;;;;;19.88;1.50;;;;;;;3.09;82.62;101094.31;5047840;28;20073;-63
2024/01/29 02:18:41;;;;;;;1.83;1.50;;;;;;;3.20;81.87;101099.78;5047850;28;20029;-64
2024/01/29 02:21:06;;;;;;;0.60;0.60;;;;;;;3.20;82.54;101106.59;5047809;28;20056;-64
2024/01/29 02:23:32;;;;;;;0.82;0.82;;;;;;;3.03;82.89;101076.13;5047441;28;20033;-63
2024/01/29 02:25:57;;;;;;;3.15;0.98;;;;;;;3.13;82.96;101079.84;5047654;28;20025;-64
2024/01/29 02:28:24;;;;;;;1.48;1.38;;;;;;;3.22;82.59;101071.59;5047620;28;20021;-65
2024/01/29 02:30:49;;;;;;;0.50;0.50;;;;;;;3.15;82.71;101070.53;5029483;28;20032;-65
2024/01/29 02:33:15;;;;;;;4.53;1.63;;;;;;;3.09;83.11;101071.22;5047318;28;20017;-65
2024/01/29 02:35:40;;;;;;;1.45;1.38;;;;;;;3.12;83.09;101074.69;5047131;28;20026;-65
2024/01/29 02:38:05;;;;;;;4.53;1.92;;;;;;;3.14;82.96;101075.59;5047254;28;20031;-65
2024/01/29 02:40:31;;;;;;;2.47;1.60;;;;;;;2.81;83.20;101043.75;5061685;23;20056;-64
2024/01/29 02:42:56;;;;;;;2.78;1.27;;;;;;;3.07;83.47;101093.38;5036614;23;20073;-65
2024/01/29 02:45:21;;;;;;;1.38;0.95;;;;;;;3.00;83.47;101075.16;5049213;23;20057;-64
2024/01/29 02:47:47;;;;;;;3.35;1.50;;;;;;;3.05;83.59;101096.72;5052610;22;20050;-64
2024/01/29 02:50:12;;;;;;;9.68;1.60;;;;;;;3.04;83.45;101082.13;5045996;28;20017;-65
2024/01/29 02:52:37;;;;;;;1.48;1.38;;;;;;;2.95;83.73;101083.56;5051825;23;20061;-64
2024/01/29 02:55:04;;;;;;;0.85;0.82;;;;;;;2.99;83.89;101094.78;5046173;28;20188;-64
2024/01/29 02:57:29;;;;;;;0.70;0.70;;;;;;;3.06;83.54;101083.06;5047088;28;20085;-65
2024/01/29 02:59:54;;;;;;;2.20;1.65;;;;;;;3.14;82.53;101081.63;5046982;28;20025;-65
2024/01/29 03:02:20;;;;;;;2.90;1.70;;;;;;;3.09;82.76;101072.88;5046951;28;20021;-65
2024/01/29 03:04:45;;;;;;;2.05;0.80;;;;;;;3.06;83.17;101095.88;5046430;28;20036;-64
2024/01/29 03:07:11;;;;;;;2.17;1.95;;;;;;;3.11;83.52;101096.91;5047099;28;20021;-66
2024/01/29 03:09:36;;;;;;;9.68;1.00;;;;;;;3.04;83.67;101092.38;5046983;28;20029;-65
2024/01/29 03:12:02;;;;;;;5.45;1.95;;;;;;;2.87;84.18;101079.88;5056780;23;20053;-64
2024/01/29 03:14:28;;;;;;;9.88;2.47;;;;;;;2.98;84.02;101077.66;5024341;28;20054;-64
2024/01/29 03:16:53;;;;;;;2.40;0.73;;;;;;;2.95;84.49;101068.19;5008281;28;20025;-65
2024/01/29 03:19:19;;;;;;;0.90;0.90;;;;;;;2.94;84.08;101063.00;5027018;28;20029;-64
2024/01/29 03:21:45;;;;;;;0.75;0.75;;;;;;;2.97;84.36;101076.78;5026859;28;20044;-64
2024/01/29 03:24:10;;;;;;;1.02;1.02;;;;;;;3.04;83.83;101071.84;5027381;23;20136;-65
2024/01/29 03:26:36;;;;;;;3.30;1.60;;;;;;;3.01;84.41;101077.78;5059137;23;20079;-65
2024/01/29 03:29:01;;;;;;;1.35;1.30;;;;;;;3.03;84.76;101060.75;5045528;28;20021;-65
2024/01/29 03:31:27;;;;;;;3.22;1.85;;;;;;;3.04;84.74;101054.78;5045539;28;20031;-64
2024/01/29 03:33:52;;;;;;;1.52;1.42;;;;;;;3.07;84.33;101065.16;5028582;28;20090;-64
2024/01/29 03:36:18;;;;;;;0.50;0.50;;;;;;;3.04;84.50;101061.59;5045939;28;20045;-64
2024/01/29 03:38:43;;;;;;;0.98;0.98;;;;;;;3.08;84.55;101058.34;5051793;23;20060;-64
2024/01/29 03:41:08;;;;;;;4.40;1.85;;;;;;;3.02;84.76;101068.41;5015332;23;20057;-64
2024/01/29 03:43:34;;;;;;;2.58;1.58;;;;;;;3.01;84.80;101053.78;5031006;23;20114;-64
2024/01/29 03:45:59;;;;;;;1.88;1.02;;;;;;;3.03;84.38;101050.47;5025695;28;20022;-65
2024/01/29 03:48:26;;;;;;;1.60;1.33;;;;;;;3.04;84.16;101046.19;5026506;28;20424;-65
2024/01/29 03:50:51;;;;;;;0.90;0.85;;;;;;;3.02;84.92;101047.88;5026147;28;20117;-65
2024/01/29 03:53:16;;;;;;;5.70;1.27;;;;;;;3.01;84.78;101038.41;5026251;28;20026;-65
2024/01/29 03:55:42;;;;;;;0.52;0.52;;;;;;;2.97;85.22;101030.63;5008594;28;20032;-65
2024/01/29 03:58:07;;;;;;;1.40;1.30;;;;;;;2.99;85.08;101027.25;5026164;28;20082;-65
2024/01/29 04:00:33;;;;;;;0.63;0.63;;;;;;;2.99;85.15;101058.03;5026295;28;20406;-65
2024/01/29 04:02:59;;;;;;;0.82;0.82;;;;;;;3.00;85.38;101047.81;5008046;28;20037;-64
2024/01/29 04:05:25;;;;;;;1.08;0.60;;;;;;;3.04;85.53;101047.09;5025999;28;20026;-65
2024/01/29 04:07:51;;;;;;;1.00;0.90;;;;;;;3.08;85.48;101019.84;5025853;28;20032;-65
2024/01/29 04:10:17;;;;;;;1.25;1.23;;;;;;;3.02;85.37;101011.94;5026030;28;20025;-64
2024/01/29 04:12:42;;;;;;;2.35;2.00;;;;;;;3.05;85.52;101012.06;5019838;23;20504;-65
2024/01/29 04:15:08;;;;;;;9.18;1.17;;;;;;;3.07;84.92;100995.88;5044039;23;20284;-64
2024/01/29 04:17:35;;;;;;;0.50;0.50;;;;;;;3.13;85.14;101000.31;5063110;23;20435;-64
2024/01/29 04:20:02;;;;;;;0.80;0.80;;;;;;;3.21;84.15;100986.03;5043045;28;20046;-64
2024/01/29 04:22:28;;;;;;;1.35;1.25;;;;;;;3.12;84.85;100980.63;5044367;28;20033;-65
2024/01/29 04:24:53;;;;;;;1.17;1.02;;;;;;;3.13;85.00;100984.06;5045429;28;20029;-64
2024/01/29 04:27:18;;;;;;;6.43;1.48;;;;;;;3.19;84.60;100963.72;5044744;28;20081;-64
2024/01/29 04:29:44;;;;;;;15.85;1.33;;;;;;;3.15;84.60;100960.19;5027386;28;20028;-64
2024/01/29 04:32:09;;;;;;;1.08;1.08;;;;;;;3.12;84.91;100954.09;5044917;28;20026;-64
2024/01/29 04:34:35;;;;;;;3.80;1.05;;;;;;;3.14;85.46;100970.41;5044178;28;20017;-64
2024/01/29 04:37:01;;;;;;;23.92;2.78;;;;;;;3.09;85.68;100990.78;5045171;28;20022;-64
2024/01/29 04:39:26;;;;;;;1.77;1.52;;;;;;;3.01;85.78;100985.41;5045249;28;20037;-64
2024/01/29 04:41:52;;;;;;;0.93;0.93;;;;;;;3.12;85.62;101005.41;5027406;28;20033;-64
2024/01/29 04:44:18;;;;;;;1.50;1.40;;;;;;;3.08;85.97;100991.63;5052986;23;20054;-67
2024/01/29 04:46:43;;;;;;;1.23;1.13;;;;;;;3.13;86.12;100979.78;5050137;23;20445;-64
2024/01/29 04:49:08;;;;;;;2.70;1.38;;;;;;;3.14;86.03;100971.28;5043808;28;20076;-64
2024/01/29 04:51:34;;;;;;;0.80;0.80;;;;;;;3.14;86.15;100970.41;5016761;23;20493;-64
2024/01/29 04:54:00;;;;;;;0.70;0.70;;;;;;;3.18;86.24;100972.25;5006205;28;20451;-64
2024/01/29 04:56:25;;;;;;;3.25;2.78;;;;;;;3.15;86.55;100973.03;5025326;28;20022;-64
2024/01/29 04:58:50;;;;;;;3.15;2.38;;;;;;;3.18;86.46;100975.69;5025163;28;20018;-63
2024/01/29 05:01:16;;;;;;;1.05;1.05;;;;;;;3.25;86.04;100973.31;5025242;28;20053;-64
2024/01/29 05:03:41;;;;;;;1.20;1.10;;;;;;;3.19;85.96;100980.00;5025130;28;20026;-65
2024/01/29 05:06:07;;;;;;;1.48;1.38;;;;;;;3.18;86.32;100962.84;5028942;23;20093;-64
2024/01/29 05:08:32;;;;;;;1.45;1.35;;;;;;;3.19;86.44;100967.19;5043333;28;20040;-65
2024/01/29 05:10:57;;;;;;;1.27;0.85;;;;;;;3.24;86.29;100959.63;5043936;28;20033;-64
2024/01/29 05:13:23;;;;;;;1.30;1.10;;;;;;;3.24;86.51;100982.72;5044475;28;20106;-64
2024/01/29 05:15:48;;;;;;;0.57;0.57;;;;;;;3.18;86.43;100970.56;5058268;23;20042;-65
2024/01/29 05:18:14;;;;;;;2.72;0.95;;;;;;;3.23;86.72;100970.69;5049490;23;20042;-63
2024/01/29 05:20:39;;;;;;;4.60;1.40;;;;;;;3.26;86.84;100977.63;5043211;28;20033;-63
2024/01/29 05:23:05;;;;;;;1.38;1.05;;;;;;;3.27;87.26;100977.69;5044238;28;20033;-63
2024/01/29 05:25:31;;;;;;;0.60;0.60;;;;;;;3.39;86.74;100966.91;5044487;28;20100;-62
2024/01/29 05:28:01;;;;;;;1.95;1.40;;;;;;;3.26;86.69;100957.94;5026661;28;20088;-65
2024/01/29 05:30:27;;;;;;;0.63;0.63;;;;;;;3.26;86.81;100975.06;5044575;28;20053;-62
2024/01/29 05:32:52;;;;;;;5.60;0.85;;;;;;;3.28;86.62;100968.25;5026802;28;20029;-61
2024/01/29 05:35:18;;;;;;;4.55;1.48;;;;;;;3.30;86.46;100976.88;5044449;28;20452;-63
2024/01/29 05:37:43;;;;;;;2.78;1.58;;;;;;;3.35;86.50;100983.03;5026661;28;20029;-64
2024/01/29 05:40:11;;;;;;;3.35;2.05;;;;;;;3.31;86.46;100974.38;5048326;28;20030;-63
2024/01/29 05:42:37;;;;;;;1.42;1.25;;;;;;;3.38;86.34;100985.72;5048549;28;20029;-65
2024/01/29 05:45:03;;;;;;;1.52;1.35;;;;;;;3.37;86.40;101001.06;5048676;28;20175;-64
2024/01/29 05:47:28;;;;;;;0.80;0.80;;;;;;;3.37;86.42;100989.06;5053964;23;20049;-65
2024/01/29 05:49:53;;;;;;;0.52;0.52;;;;;;;3.43;86.49;100997.00;5029512;28;20072;-65
2024/01/29 05:52:19;;;;;;;5.72;2.35;;;;;;;3.50;86.64;100995.47;5029626;28;20021;-64
2024/01/29 05:54:44;;;;;;;2.40;1.27;;;;;;;3.51;86.82;100986.06;5048519;28;20033;-65
2024/01/29 05:57:10;;;;;;;2.85;1.98;;;;;;;3.56;86.82;100995.63;5030769;28;20200;-65
2024/01/29 05:59:35;;;;;;;3.08;1.50;;;;;;;3.56;86.77;100990.50;5047811;28;20029;-65
2024/01/29 06:02:01;;;;;;;0.82;0.80;;;;;;;3.56;86.79;101008.47;5047081;28;20035;-66
2024/01/29 06:04:26;;;;;;;0.65;0.65;;;;;;;3.65;86.94;101004.44;5048301;28;20485;-65
2024/01/29 06:06:51;;;;;;;5.30;2.00;;;;;;;3.68;86.63;101012.25;5030550;28;20025;-65
2024/01/29 06:09:17;;;;;;;0.93;0.90;;;;;;;3.78;86.21;100998.88;5048195;28;20025;-66
2024/01/29 06:11:42;;;;;;;4.35;1.42;;;;;;;3.78;85.70;101003.13;5048303;28;20389;-66
2024/01/29 06:14:07;;;;;;;3.28;1.17;;;;;;;3.71;86.06;101010.66;5047983;28;20457;-66
2024/01/29 06:16:33;;;;;;;1.10;0.95;;;;;;;3.71;86.38;101010.66;5048328;28;20028;-66
2024/01/29 06:18:58;;;;;;;3.10;1.80;;;;;;;3.77;85.96;101021.94;5048127;28;20026;-66
2024/01/29 06:21:23;;;;;;;2.53;1.45;;;;;;;3.76;85.34;101025.31;5047894;28;20024;-66
2024/01/29 06:23:49;;;;;;;4.53;2.38;;;;;;;3.81;85.67;101011.78;5047723;28;20164;-66
2024/01/29 06:26:14;;;;;;;2.10;1.50;;;;;;;3.87;86.30;101010.22;5047846;28;20059;-65
2024/01/29 06:28:43;;;;;;;1.38;1.10;;;;;;;3.92;86.14;101019.81;5047875;28;20111;-66
2024/01/29 06:31:09;;;;;;;0.80;0.80;;;;;;;3.90;86.15;101024.03;5048134;28;20025;-65
2024/01/29 06:33:35;;;;;;;1.58;1.48;;;;;;;3.85;86.21;101028.16;5047749;28;20049;-64
2024/01/29 06:36:02;;;;;;;1.15;1.13;;;;;;;3.94;85.42;101035.28;5040724;23;20043;-65
2024/01/29 06:38:27;;;;;;;1.00;1.00;;;;;;;3.95;85.81;101026.72;5045949;28;20040;-65
2024/01/29 06:40:53;;;;;;;1.52;1.42;;;;;;;3.95;85.69;101025.03;5047234;28;20029;-65
2024/01/29 06:43:18;;;;;;;0.60;0.60;;;;;;;3.95;85.96;101034.44;5047390;28;20482;-65
2024/01/29 06:45:43;;;;;;;2.28;1.30;;;;;;;3.97;85.09;101043.06;5047665;28;20056;-66
2024/01/29 06:48:09;;;;;;;2.60;1.98;;;;;;;3.96;85.63;101046.47;5047629;28;20018;-66
2024/01/29 06:50:34;;;;;;;6.32;1.85;;;;;;;3.90;85.76;101042.00;5046465;28;20075;-66
2024/01/29 06:53:00;;;;;;;1.83;1.70;;;;;;;4.00;85.31;101062.81;5029222;28;20021;-64
2024/01/29 06:55:25;;;;;;;1.17;1.08;;;;;;;4.05;85.81;101051.88;5047346;28;20022;-62
2024/01/29 06:57:50;;;;;;;2.10;1.30;;;;;;;4.04;85.68;101064.69;5047246;28;20025;-64
2024/01/29 07:00:16;;;;;;;2.35;2.15;;;;;;;4.04;85.10;101065.53;5047185;28;20025;-63
2024/01/29 07:02:42;;;;;;;2.15;1.90;;;;;;;4.07;85.00;101064.75;5046940;28;20025;-64
2024/01/29 07:05:07;;;;;;;1.23;0.93;;;;;;;4.07;84.69;101080.19;5053423;23;20104;-64
2024/01/29 07:07:33;;;;;;;0.95;0.85;;;;;;;4.07;83.88;101090.47;5050036;23;20049;-62
2024/01/29 07:09:58;;;;;;;2.03;1.77;;;;;;;4.09;84.43;101073.38;5046404;28;20108;-63
2024/01/29 07:12:23;;;;;;;2.15;1.42;;;;;;;4.14;84.62;101096.66;5047330;28;20526;-62
2024/01/29 07:14:52;;;;;;;2.35;1.33;;;;;;;4.15;84.25;101095.81;5029164;28;20025;-63
2024/01/29 07:17:17;;;;;;;11.85;1.67;;;;;;;4.21;84.96;101089.16;5047271;28;20104;-62
2024/01/29 07:19:44;;;;;;;13.27;1.98;;;;;;;4.22;84.76;101090.91;5047142;28;20026;-63
2024/01/29 07:22:14;;;;;;;1.00;1.00;;;;;;;4.19;85.09;101090.81;5047194;28;20029;-64
2024/01/29 07:24:40;;;;;;;1.50;1.33;;;;;;;4.26;84.99;101098.69;5046841;28;20018;-62
2024/01/29 07:27:05;;;;;;;1.05;0.82;;;;;;;4.17;84.70;101107.88;5053211;23;20031;-63
2024/01/29 07:29:31;;;;;;;0.82;0.80;;;;;;;4.11;83.61;101100.00;5050991;23;20509;-64
2024/01/29 07:31:57;;;;;;;3.03;2.58;;;;;;;4.16;83.23;101095.88;5045481;28;20079;-65
2024/01/29 07:34:22;;;;;;;5.20;3.60;;;;;;;4.18;83.21;101108.75;5046147;28;20037;-64
2024/01/29 07:36:48;;;;;;;2.08;1.33;;;;;;;4.28;83.91;101117.63;5046707;28;20052;-65
2024/01/29 07:39:13;;;;;;;10.40;2.03;;;;;;;4.30;83.98;101113.38;5046517;28;20026;-64
2024/01/29 07:41:39;;;;;;;0.60;0.60;;;;;;;4.29;84.48;101101.34;5046623;28;20021;-65
2024/01/29 07:44:05;;;;;;;1.17;1.15;;;;;;;4.33;84.20;101128.88;5046247;28;20021;-64
2024/01/29 07:46:31;;;;;;;8.70;2.25;;;;;;;4.33;84.73;101134.03;5046540;28;20033;-64
2024/01/29 07:48:59;;;;;;;2.10;2.00;;;;;;;4.36;84.49;101157.25;5028478;28;20057;-64
2024/01/29 07:51:26;;;;;;;3.63;2.30;;;;;;;4.36;84.41;101151.25;5028675;28;20079;-64
2024/01/29 07:53:51;;;;;;;2.35;1.77;;;;;;;4.42;84.86;101146.28;5046051;28;20017;-64
2024/01/29 07:56:16;;;;;;;1.45;1.35;;;;;;;4.43;85.02;101148.91;5046387;28;20417;-64
2024/01/29 07:58:42;;;;;;;2.63;1.38;;;;;;;4.41;85.51;101142.84;5056488;23;20113;-62
2024/01/29 08:01:07;;;;;;;5.35;1.75;;;;;;;4.42;84.99;101152.31;5044785;28;20045;-62
2024/01/29 08:03:32;;;;;;;3.30;2.08;;;;;;;4.47;85.25;101150.72;5046070;28;20024;-63
2024/01/29 08:05:58;;;;;;;1.40;1.30;;;;;;;4.44;85.55;101145.50;5046281;28;20180;-62
2024/01/29 08:08:23;;;;;;;1.38;1.27;;;;;;;4.47;85.56;101143.00;5028051;28;20025;-63
2024/01/29 08:10:48;;;;;;;3.72;1.88;;;;;;;4.50;85.96;101162.81;5028470;28;20503;-63
2024/01/29 08:13:14;;;;;;;5.70;2.40;;;;;;;4.46;85.74;101169.56;5045933;28;20018;-62
2024/01/29 08:15:39;;;;;;;1.42;1.02;;;;;;;4.44;85.71;101173.78;5046103;28;20089;-62
2024/01/29 08:18:05;;;;;;;3.40;2.00;;;;;;;4.50;85.72;101177.38;5046020;28;20029;-63
2024/01/29 08:20:30;;;;;;;4.82;2.65;;;;;;;4.50;85.51;101193.69;5045810;28;20025;-63
2024/01/29 08:22:56;;;;;;;1.35;1.25;;;;;;;4.47;85.40;101191.88;5045820;28;20118;-64
2024/01/29 08:25:21;;;;;;;3.70;1.92;;;;;;;4.47;85.24;101194.44;5045860;28;20519;-62
2024/01/29 08:27:48;;;;;;;4.43;1.50;;;;;;;4.43;84.52;101197.75;5028029;28;20096;-63
2024/01/29 08:30:14;;;;;;;12.27;2.28;;;;;;;4.46;84.51;101199.53;5045553;28;20112;-63
2024/01/29 08:32:39;;;;;;;1.92;1.65;;;;;;;4.50;84.59;101203.97;5027880;28;20112;-63
2024/01/29 08:35:05;;;;;;;5.40;1.52;;;;;;;4.55;84.70;101212.66;5045675;28;20029;-62
2024/01/29 08:37:31;;;;;;;2.80;2.60;;;;;;;4.51;84.74;101217.69;5045783;28;20029;-64
2024/01/29 08:39:56;;;;;;;4.25;3.30;;;;;;;4.42;84.68;101203.75;5045479;28;20501;-63
2024/01/29 08:42:21;;;;;;;10.25;3.22;;;;;;;4.56;84.70;101210.97;5045718;28;20027;-63
2024/01/29 08:44:47;;;;;;;1.20;1.10;;;;;;;4.59;84.91;101203.34;5045404;28;20025;-63
2024/01/29 08:47:12;;;;;;;6.05;1.98;;;;;;;4.66;85.13;101205.28;5045665;28;20017;-62
2024/01/29 08:49:38;;;;;;;0.80;0.80;;;;;;;4.54;85.25;101202.34;5045426;28;20364;-62
2024/01/29 08:52:04;;;;;;;2.47;2.28;;;;;;;4.54;84.87;101215.19;5045488;28;20392;-63
2024/01/29 08:54:29;;;;;;;2.78;2.40;;;;;;;4.53;83.98;101209.19;5045232;28;20017;-63
2024/01/29 08:56:54;;;;;;;2.63;1.58;;;;;;;4.62;85.04;101213.72;5045196;28;20044;-63
2024/01/29 08:59:21;;;;;;;9.07;2.72;;;;;;;4.56;84.06;101204.16;5045369;28;20440;-64
2024/01/29 09:01:46;;;;;;;5.60;2.05;;;;;;;4.66;84.63;101201.84;5045431;28;20040;-62
2024/01/29 09:04:12;;;;;;;0.98;0.98;;;;;;;4.69;85.27;101196.78;5044988;28;20033;-62
2024/01/29 09:06:37;;;;;;;2.28;2.05;;;;;;;4.68;85.33;101190.75;5027366;28;20078;-63
2024/01/29 09:09:03;;;;;;;0.60;0.60;;;;;;;4.66;85.59;101196.69;5044931;28;20044;-63
2024/01/29 09:11:28;;;;;;;1.88;1.73;;;;;;;4.69;85.43;101200.22;5045330;28;20025;-63
2024/01/29 09:13:54;;;;;;;15.43;2.63;;;;;;;4.73;85.44;101192.59;5044439;28;20026;-62
2024/01/29 09:16:19;;;;;;;3.97;2.35;;;;;;;4.69;85.88;101179.66;5045229;28;20048;-63
2024/01/29 09:18:44;;;;;;;2.50;1.88;;;;;;;4.75;85.76;101185.78;5044967;28;20051;-63
2024/01/29 09:21:10;;;;;;;4.25;2.20;;;;;;;4.70;86.33;101196.81;5045089;28;20103;-62
2024/01/29 09:23:37;;;;;;;4.50;2.95;;;;;;;4.72;85.83;101209.72;5044694;28;20048;-63
2024/01/29 09:26:02;;;;;;;3.13;2.28;;;;;;;4.77;86.15;101187.59;5027260;28;20021;-64
2024/01/29 09:28:28;;;;;;;20.33;4.65;;;;;;;4.75;86.05;101167.78;5032799;23;20049;-65
2024/01/29 09:30:53;;;;;;;14.10;1.90;;;;;;;4.87;86.26;101168.13;5025819;28;20025;-65
2024/01/29 09:33:19;;;;;;;0.88;0.88;;;;;;;4.84;86.47;101178.31;5044370;28;20028;-65
2024/01/29 09:35:45;;;;;;;13.75;2.67;;;;;;;4.82;86.28;101185.13;5044870;28;20108;-64
2024/01/29 09:38:12;;;;;;;4.70;1.60;;;;;;;4.89;86.56;101205.06;5044605;28;20025;-64
2024/01/29 09:40:37;;;;;;;4.55;3.40;;;;;;;4.96;86.39;101201.84;5027213;28;20028;-64
2024/01/29 09:43:05;;;;;;;5.82;1.83;;;;;;;5.04;86.25;101224.31;5044987;28;20454;-65
2024/01/29 09:45:33;;;;;;;8.25;2.30;;;;;;;5.05;86.39;101219.22;5044837;28;20026;-65
2024/01/29 09:47:59;;;;;;;3.45;3.15;;;;;;;5.12;86.79;101228.00;5027039;28;20084;-65
2024/01/29 09:50:26;;;;;;;4.70;2.58;;;;;;;5.10;86.53;101226.22;5026895;28;20056;-65
2024/01/29 09:52:54;;;;;;;2.28;2.08;;;;;;;5.09;86.10;101215.03;5044836;28;20074;-65
2024/01/29 09:55:20;;;;;;;4.10;1.42;;;;;;;5.18;86.50;101230.72;5026840;28;20018;-65
2024/01/29 09:57:45;;;;;;;0.82;0.82;;;;;;;5.19;86.30;101221.31;5026848;28;20033;-65
2024/01/29 10:00:12;;;;;;;5.88;2.08;;;;;;;5.11;86.18;101233.09;5043931;28;20017;-64
2024/01/29 10:02:41;;;;;;;2.75;1.98;;;;;;;5.09;86.16;101230.47;5043259;28;20026;-64
2024/01/29 10:05:08;;;;;;;6.32;2.00;;;;;;;5.19;85.64;101223.88;5044290;28;20025;-64
2024/01/29 10:07:34;;;;;;;2.95;2.13;;;;;;;5.11;86.39;101231.41;5026811;28;20028;-64
2024/01/29 10:10:06;;;;;;;8.98;2.58;;;;;;;5.17;86.59;101229.00;5026824;28;20045;-64
2024/01/29 10:12:31;;;;;;;;;;;;;;;5.23;85.83;101243.72;5044992;28;20025;-65
2024/01/29 10:14:56;;;;;;;2.38;1.27;;;;;;;5.12;85.97;101212.53;5044468;28;19955;-64
2024/01/29 10:17:23;;;;;;;4.28;1.25;;;;;;;5.15;85.42;101217.78;5044738;28;20025;-64
2024/01/29 10:19:49;;;;;;;3.40;2.75;;;;;;;5.08;85.64;101211.59;5026654;28;20022;-65
2024/01/29 10:22:14;;;;;;;1.27;1.20;;;;;;;5.07;85.81;101206.41;5044494;28;20096;-66
2024/01/29 10:24:40;;;;;;;6.40;1.60;;;;;;;5.06;85.02;101220.09;5045959;28;20029;-64
2024/01/29 10:27:06;;;;;;;18.55;3.50;;;;;;;4.98;85.97;101224.16;5048276;28;20028;-65
2024/01/29 10:29:32;;;;;;;4.32;2.25;;;;;;;4.99;86.27;101220.75;5047919;28;20231;-65
2024/01/29 10:31:59;;;;;;;6.38;3.65;;;;;;;5.01;86.51;101232.84;5048342;28;20072;-64
2024/01/29 10:34:24;;;;;;;3.42;2.20;;;;;;;4.93;87.05;101224.91;5030047;28;20108;-65
2024/01/29 10:36:51;;;;;;;5.72;3.65;;;;;;;5.06;86.88;101240.69;5048029;28;20053;-65
2024/01/29 10:39:20;;;;;;;1.17;1.15;;;;;;;5.17;87.35;101241.88;5047747;28;20022;-64
2024/01/29 10:41:50;;;;;;;3.65;1.83;;;;;;;5.21;87.04;101245.38;5047543;28;20056;-65
2024/01/29 10:44:18;;;;;;;3.40;1.27;;;;;;;5.20;87.07;101244.53;5047498;28;20025;-63
2024/01/29 10:46:46;;;;;;;12.60;3.50;;;;;;;5.17;87.14;101259.00;5047628;28;20029;-64
2024/01/29 10:49:12;;;;;;;1.98;1.42;;;;;;;5.17;87.58;101246.13;5047839;28;20033;-64
2024/01/29 10:51:40;;;;;;;1.83;1.70;;;;;;;5.15;86.88;101255.50;5047742;28;20021;-65
2024/01/29 10:54:08;;;;;;;1.98;1.85;;;;;;;5.21;87.71;101253.97;5047582;28;20017;-64
2024/01/29 10:56:35;;;;;;;2.22;1.92;;;;;;;5.27;86.99;101255.00;5047433;28;20032;-64
2024/01/29 10:59:01;;;;;;;3.47;3.17;;;;;;;5.28;87.18;101257.59;5047569;28;20055;-63
2024/01/29 11:01:28;;;;;;;2.45;2.25;;;;;;;5.35;87.74;101262.91;5047446;28;20017;-64
2024/01/29 11:03:56;;;;;;;18.63;4.68;;;;;;;5.27;87.69;101258.41;5047249;28;20029;-64
2024/01/29 11:06:35;;;;;;;4.97;2.60;;;;;;;5.24;87.31;101271.22;5047553;28;20025;-65
2024/01/29 11:09:08;;;;;;;1.42;1.33;;;;;;;5.21;87.20;101266.84;5029402;28;20018;-65
2024/01/29 11:11:35;;;;;;;4.78;1.42;;;;;;;5.21;87.21;101272.00;5030185;28;20029;-65
2024/01/29 11:14:01;;;;;;;16.20;2.58;;;;;;;5.16;85.93;101283.88;5047130;28;20018;-65
2024/01/29 11:16:27;;;;;;;8.43;4.82;;;;;;;5.15;85.96;101281.25;5047235;28;20033;-64
2024/01/29 11:18:53;;;;;;;5.68;2.33;;;;;;;5.09;85.57;101284.53;5047299;28;20111;-65
2024/01/29 11:21:23;;;;;;;5.10;2.63;;;;;;;5.14;85.50;101290.69;5047192;28;20025;-64
2024/01/29 11:23:54;;;;;;;2.28;2.08;;;;;;;5.17;85.81;101285.63;5046920;28;20026;-65
2024/01/29 11:26:21;;;;;;;10.73;2.25;;;;;;;5.19;86.20;101288.25;5047242;28;20069;-64
2024/01/29 11:29:00;;;;;;;1.80;1.20;;;;;;;5.14;86.36;101275.25;5046672;28;20045;-65
2024/01/29 11:31:41;;;;;;;4.90;1.17;;;;;;;5.13;86.10;101286.34;5029211;28;20036;-65